Todos
Coonamble Airport (Coonamble, New South Wales) CNB Condições meteorológicas
|
Coonamble, New South Wales (CNB / YCNM)
Céu Limpo
Vento Ligeiro |
|
22 °C |
There is no TAF data available at CNB or any nearby airports.
Histórico recente de METAR CNB
| Date | Time (AEST) | Flight Rules | Wind Dir. | Speed | Type | Height AGL (ft) | Visibility | Temp (°C) | Temp (°F) | Dew Point (°C) | Dew Point (°F) | Rel. Humid. | Pressure | Density Altitude | Remarks |
|---|---|---|---|---|---|---|---|---|---|---|---|---|---|---|---|
| 09-Mai | 16:00 | n/a | 200° | 7 kt | Missing | 22° | 71° | 5° | 41° | 33% | 1022 mb | 1.184 ft | |||
| 09-Mai | 15:00 | n/a | 200° | 6 kt | Missing | 22° | 71° | 5° | 41° | 33% | 1022 mb | 1.184 ft | |||
| 09-Mai | 14:00 | n/a | 280° | 5 kt | Missing | 22° | 71° | 5° | 41° | 33% | 1023 mb | 1.155 ft | |||
| 09-Mai | 13:00 | n/a | 90° | 4 kt | Missing | 21° | 69° | 5° | 41° | 35% | 1023 mb | 1.035 ft | |||
| 09-Mai | 12:00 | n/a | 190° | 5 kt | Missing | 20° | 68° | 6° | 42° | 40% | 1024 mb | 885 ft | |||
| 09-Mai | 11:00 | n/a | 170° | 7 kt | Missing | 19° | 66° | 7° | 44° | 46% | 1025 mb | 736 ft | |||
| 09-Mai | 10:00 | n/a | 170° | 11 kt | Missing | 17° | 62° | 8° | 46° | 55% | 1025 mb | 496 ft | |||
| 09-Mai | 09:00 | n/a | 180° | 11 kt | Missing | 14° | 57° | 9° | 48° | 72% | 1025 mb | 136 ft | |||
| 09-Mai | 08:00 | n/a | 170° | 8 kt | Missing | 11° | 51° | 8° | 46° | 82% | 1025 mb | -224 ft | |||
| 09-Mai | 07:00 | n/a | 200° | 8 kt | Missing | 8° | 46° | 7° | 44° | 93% | 1024 mb | -555 ft | |||
| 09-Mai | 06:00 | n/a | 200° | 7 kt | Missing | 7° | 44° | 6° | 42° | 93% | 1024 mb | -675 ft | |||
| 09-Mai | 05:00 | n/a | 200° | 6 kt | Missing | 7° | 44° | 6° | 42° | 93% | 1024 mb | -675 ft | |||
| 09-Mai | 04:00 | n/a | 190° | 6 kt | Missing | 8° | 46° | 6° | 42° | 87% | 1023 mb | -525 ft | |||
| 09-Mai | 03:00 | n/a | 200° | 7 kt | Missing | 8° | 46° | 6° | 42° | 87% | 1024 mb | -555 ft | |||
| 09-Mai | 02:00 | n/a | 200° | 7 kt | Missing | 9° | 48° | 6° | 42° | 81% | 1024 mb | -435 ft | |||
| 09-Mai | 01:00 | n/a | 200° | 7 kt | Missing | 8° | 46° | 5° | 41° | 81% | 1024 mb | -555 ft | |||
| 09-Mai | 00:00 | n/a | 240° | 3 kt | Missing | 8° | 46° | 5° | 41° | 81% | 1024 mb | -555 ft | |||
| 08-Mai | 23:00 | n/a | 210° | 4 kt | Missing | 9° | 48° | 5° | 41° | 76% | 1024 mb | -435 ft | |||
| 08-Mai | 22:00 | n/a | 210° | 6 kt | Missing | 11° | 51° | 6° | 42° | 71% | 1024 mb | -195 ft | |||
| 08-Mai | 21:00 | n/a | 210° | 7 kt | Missing | 12° | 53° | 6° | 42° | 67% | 1024 mb | -75 ft | |||
| 08-Mai | 20:00 | n/a | 200° | 7 kt | Missing | 14° | 57° | 7° | 44° | 63% | 1024 mb | 165 ft | |||
| 08-Mai | 19:00 | n/a | 200° | 8 kt | Missing | 14° | 57° | 7° | 44° | 63% | 1024 mb | 165 ft | |||
| 08-Mai | 18:00 | n/a | 220° | 10 kt | Missing | 15° | 59° | 6° | 42° | 55% | 1023 mb | 315 ft | |||
| 08-Mai | 17:00 | n/a | 230° | 12 kt | Missing | 17° | 62° | 6° | 42° | 48% | 1022 mb | 584 ft |
Entrar
| Seu navegador não suporta. atualize seu navegador |
